Time;durP1;ratioP1;P1;durP2;ratioP2;P2;SDS_P1;SDS_P2;PMS_P1;PMS_P2;Temp;Humidity;BMP_temperature;BMP_pressure;BME280_temperature;BME280_humidity;BME280_pressure;Samples;Min_cycle;Max_cycle;Signal;HPM_P1;HPM_P2
2021/06/19 00:01:05;;;;;;;;;;;25.10;66.10;;;;;;5115878;27;19923;-69
2021/06/19 00:03:31;;;;;;;;;;;24.90;67.10;;;;;;5138456;27;20325;-69
2021/06/19 00:05:58;;;;;;;;;;;25.00;67.70;;;;;;5135034;27;20014;-69
2021/06/19 00:08:25;;;;;;;;;;;25.20;67.00;;;;;;5135155;27;20442;-68
2021/06/19 00:10:52;;;;;;;;;;;25.40;66.50;;;;;;5135981;27;19927;-73
2021/06/19 00:13:19;;;;;;;;;;;25.50;65.60;;;;;;5136498;27;20029;-73
2021/06/19 00:15:45;;;;;;;;;;;25.10;67.00;;;;;;5137893;27;20320;-73
2021/06/19 00:18:12;;;;;;;;;;;25.50;66.80;;;;;;5136175;27;20441;-72
2021/06/19 00:20:39;;;;;;;;;;;25.30;67.20;;;;;;5138159;27;20053;-73
2021/06/19 00:23:05;;;;;;;;;;;25.00;68.50;;;;;;5136219;27;19929;-73
2021/06/19 00:25:32;;;;;;;;;;;25.00;68.90;;;;;;5138529;27;20025;-73
2021/06/19 00:27:59;;;;;;;;;;;24.80;69.80;;;;;;5136985;27;19927;-73
2021/06/19 00:30:26;;;;;;;;;;;25.00;69.50;;;;;;5137509;27;19927;-73
2021/06/19 00:32:53;;;;;;;;;;;25.10;69.30;;;;;;5134557;27;19996;-73
2021/06/19 00:35:20;;;;;;;;;;;25.10;69.50;;;;;;5136732;27;20006;-73
2021/06/19 00:37:48;;;;;;;;;;;25.00;69.40;;;;;;5134539;27;19975;-73
2021/06/19 00:40:15;;;;;;;;;;;25.10;69.00;;;;;;5135987;27;20021;-73
2021/06/19 00:42:58;;;;;;;;;;;25.10;68.60;;;;;;5136165;27;19923;-73
2021/06/19 00:45:26;;;;;;;;;;;25.20;68.40;;;;;;5137283;27;20100;-74
2021/06/19 00:47:52;;;;;;;;;;;25.30;68.20;;;;;;5137595;27;19932;-73
2021/06/19 00:50:20;;;;;;;;;;;25.20;67.80;;;;;;5136186;27;20027;-73
2021/06/19 00:52:47;;;;;;;;;;;25.30;67.90;;;;;;5136801;27;19954;-73
2021/06/19 00:55:14;;;;;;;;;;;25.30;67.70;;;;;;5136751;27;19956;-72
2021/06/19 00:57:41;;;;;;;;;;;25.20;67.80;;;;;;5137478;27;20049;-73
2021/06/19 01:00:09;;;;;;;;;;;25.30;67.80;;;;;;5132325;27;19927;-73
2021/06/19 01:02:36;;;;;;;;;;;25.40;67.10;;;;;;5135852;27;20434;-73
2021/06/19 01:05:04;;;;;;;;;;;25.50;67.30;;;;;;5134963;27;20046;-69
2021/06/19 01:07:31;;;;;;;;;;;25.40;69.00;;;;;;5136417;27;20046;-69
2021/06/19 01:09:58;;;;;;;;;;;25.40;70.00;;;;;;5134823;27;19927;-69
2021/06/19 01:12:25;;;;;;;;;;;25.20;71.10;;;;;;5134661;27;19933;-70
2021/06/19 01:14:52;;;;;;;;;;;24.90;72.50;;;;;;5134439;27;20369;-69
2021/06/19 01:17:20;;;;;;;;;;;24.90;73.50;;;;;;5135539;27;20412;-69
2021/06/19 01:19:58;;;;;;;;;;;24.80;74.10;;;;;;5134088;27;20105;-70
2021/06/19 01:22:25;;;;;;;;;;;24.70;75.00;;;;;;5133431;27;20692;-69
2021/06/19 01:24:51;;;;;;;;;;;24.70;75.70;;;;;;5134938;27;21340;-68
2021/06/19 01:27:18;;;;;;;;;;;24.80;75.80;;;;;;5137103;27;19928;-68
2021/06/19 01:29:45;;;;;;;;;;;24.60;76.40;;;;;;5135969;27;20011;-68
2021/06/19 01:32:11;;;;;;;;;;;24.90;75.80;;;;;;5133589;27;19927;-69
2021/06/19 01:34:38;;;;;;;;;;;24.90;75.30;;;;;;5135807;27;19927;-68
2021/06/19 01:37:05;;;;;;;;;;;24.90;75.40;;;;;;5134511;27;19927;-70
2021/06/19 01:39:32;;;;;;;;;;;24.80;75.80;;;;;;5116785;27;20009;-69
2021/06/19 01:41:58;;;;;;;;;;;24.70;76.80;;;;;;5139174;27;20444;-70
2021/06/19 01:44:25;;;;;;;;;;;24.90;76.40;;;;;;5135930;27;20089;-74
2021/06/19 01:46:52;;;;;;;;;;;24.80;76.90;;;;;;5116308;27;19930;-72
2021/06/19 01:49:18;;;;;;;;;;;24.90;77.10;;;;;;5135672;27;19933;-74
2021/06/19 01:51:45;;;;;;;;;;;25.00;76.40;;;;;;5134759;27;20440;-73
2021/06/19 01:54:12;;;;;;;;;;;25.00;76.40;;;;;;5136736;27;20021;-74
2021/06/19 01:56:38;;;;;;;;;;;24.90;76.60;;;;;;5139903;27;19966;-73
2021/06/19 01:59:05;;;;;;;;;;;24.60;78.40;;;;;;5137991;27;20006;-73
2021/06/19 02:01:32;;;;;;;;;;;24.60;79.20;;;;;;5140597;27;20014;-74
2021/06/19 02:03:58;;;;;;;;;;;24.60;79.30;;;;;;5138941;27;20013;-74
2021/06/19 02:06:25;;;;;;;;;;;24.50;79.60;;;;;;5140827;27;19927;-74
2021/06/19 02:09:01;;;;;;;;;;;24.70;79.50;;;;;;5139864;27;19970;-74
2021/06/19 02:11:28;;;;;;;;;;;24.60;79.60;;;;;;5137237;27;20065;-72
2021/06/19 02:13:55;;;;;;;;;;;24.60;79.50;;;;;;5138888;27;19930;-74
2021/06/19 02:16:22;;;;;;;;;;;24.80;78.90;;;;;;5140641;27;20002;-73
2021/06/19 02:18:48;;;;;;;;;;;24.60;78.80;;;;;;5138899;27;20340;-74
2021/06/19 02:21:16;;;;;;;;;;;24.50;79.40;;;;;;5137828;27;19967;-74
2021/06/19 02:23:43;;;;;;;;;;;24.50;79.90;;;;;;5136119;27;19933;-74
2021/06/19 02:26:10;;;;;;;;;;;24.70;78.90;;;;;;5137677;27;20062;-74
2021/06/19 02:28:36;;;;;;;;;;;24.80;78.90;;;;;;5137734;27;19930;-70
2021/06/19 02:31:03;;;;;;;;;;;24.80;78.10;;;;;;5140744;27;20434;-68
2021/06/19 02:33:30;;;;;;;;;;;24.70;79.50;;;;;;5140659;27;19934;-69
2021/06/19 02:35:57;;;;;;;;;;;24.70;78.40;;;;;;5139147;27;19962;-69
2021/06/19 02:38:24;;;;;;;;;;;24.80;78.20;;;;;;5139950;27;20037;-70
2021/06/19 02:40:51;;;;;;;;;;;24.70;78.20;;;;;;5139463;27;20022;-69
2021/06/19 02:43:20;;;;;;;;;;;24.60;78.80;;;;;;5138842;27;19949;-69
2021/06/19 02:45:48;;;;;;;;;;;24.70;79.10;;;;;;5137530;27;20006;-70
2021/06/19 02:48:15;;;;;;;;;;;24.60;79.40;;;;;;5117869;27;20325;-69
2021/06/19 02:50:42;;;;;;;;;;;24.70;79.10;;;;;;5138957;27;20420;-68
2021/06/19 02:53:11;;;;;;;;;;;24.80;78.40;;;;;;5132203;27;20664;-69
2021/06/19 02:55:40;;;;;;;;;;;24.90;77.90;;;;;;5137427;27;20015;-68
2021/06/19 02:58:07;;;;;;;;;;;24.80;78.50;;;;;;5137584;27;21426;-68
2021/06/19 03:00:34;;;;;;;;;;;24.80;78.50;;;;;;5137680;27;19966;-69
2021/06/19 03:03:01;;;;;;;;;;;24.70;79.10;;;;;;5140930;27;19988;-69
2021/06/19 03:05:29;;;;;;;;;;;24.60;79.40;;;;;;5136352;27;20018;-70
2021/06/19 03:07:55;;;;;;;;;;;24.60;79.70;;;;;;5138431;27;19967;-68
2021/06/19 03:10:24;;;;;;;;;;;24.70;79.10;;;;;;5118914;27;19991;-68
2021/06/19 03:12:50;;;;;;;;;;;24.70;79.20;;;;;;5134575;27;20020;-69
2021/06/19 03:15:18;;;;;;;;;;;24.70;78.90;;;;;;5137071;27;20446;-69
2021/06/19 03:17:44;;;;;;;;;;;24.80;78.90;;;;;;5137324;27;20121;-68
2021/06/19 03:20:13;;;;;;;;;;;24.80;78.40;;;;;;5137977;27;19958;-69
2021/06/19 03:22:44;;;;;;;;;;;24.80;78.40;;;;;;5137140;27;19931;-69
2021/06/19 03:25:13;;;;;;;;;;;24.80;79.00;;;;;;5139592;27;20010;-68
2021/06/19 03:27:39;;;;;;;;;;;24.70;79.00;;;;;;5137133;27;19978;-68
2021/06/19 03:30:06;;;;;;;;;;;24.70;79.00;;;;;;5136998;27;19927;-69
2021/06/19 03:32:36;;;;;;;;;;;24.60;80.20;;;;;;5136548;27;19961;-68
2021/06/19 03:35:02;;;;;;;;;;;24.60;79.50;;;;;;5119355;27;20014;-69
2021/06/19 03:37:29;;;;;;;;;;;24.50;80.40;;;;;;5138016;27;20017;-70
2021/06/19 03:39:56;;;;;;;;;;;24.50;80.70;;;;;;5133300;27;19976;-68
2021/06/19 03:42:22;;;;;;;;;;;24.70;80.00;;;;;;5135701;27;19927;-68
2021/06/19 03:44:49;;;;;;;;;;;24.60;80.30;;;;;;5136640;27;20304;-68
2021/06/19 03:47:16;;;;;;;;;;;24.50;81.80;;;;;;5137518;27;20792;-68
2021/06/19 03:49:43;;;;;;;;;;;24.60;81.20;;;;;;5137898;27;19973;-68
2021/06/19 03:52:09;;;;;;;;;;;24.60;81.30;;;;;;5138839;27;20333;-69
2021/06/19 03:54:37;;;;;;;;;;;24.60;81.50;;;;;;5136413;27;19966;-68
2021/06/19 03:57:05;;;;;;;;;;;24.70;81.20;;;;;;5138238;27;19927;-69
2021/06/19 03:59:32;;;;;;;;;;;24.70;81.20;;;;;;5137804;27;19973;-69
2021/06/19 04:01:59;;;;;;;;;;;24.40;83.00;;;;;;5137522;27;20485;-68
2021/06/19 04:04:26;;;;;;;;;;;24.30;83.90;;;;;;5138088;27;19927;-69
2021/06/19 04:06:53;;;;;;;;;;;24.50;83.50;;;;;;5137988;27;20018;-69
2021/06/19 04:09:19;;;;;;;;;;;24.60;82.70;;;;;;5135933;27;19931;-68
2021/06/19 04:11:46;;;;;;;;;;;24.50;83.30;;;;;;5134759;27;19923;-69
2021/06/19 04:14:13;;;;;;;;;;;24.50;83.70;;;;;;5135828;27;19919;-69
2021/06/19 04:16:39;;;;;;;;;;;24.30;85.20;;;;;;5138839;27;20013;-70
2021/06/19 04:19:06;;;;;;;;;;;24.30;85.70;;;;;;5136964;27;19923;-69
2021/06/19 04:21:33;;;;;;;;;;;24.50;85.30;;;;;;5137838;27;19987;-68
2021/06/19 04:24:00;;;;;;;;;;;24.70;83.50;;;;;;5137708;27;19959;-68
2021/06/19 04:26:26;;;;;;;;;;;24.60;84.10;;;;;;5137058;27;19965;-68
2021/06/19 04:28:53;;;;;;;;;;;24.60;83.70;;;;;;5119251;27;19929;-69
2021/06/19 04:31:20;;;;;;;;;;;24.90;82.90;;;;;;5139046;27;19958;-69
2021/06/19 04:33:46;;;;;;;;;;;25.00;82.30;;;;;;5136942;27;20337;-68
2021/06/19 04:36:13;;;;;;;;;;;24.90;82.70;;;;;;5138465;27;19973;-69
2021/06/19 04:38:40;;;;;;;;;;;24.60;84.10;;;;;;5136804;27;19965;-70
2021/06/19 04:41:11;;;;;;;;;;;24.70;83.70;;;;;;5137668;27;19970;-70
2021/06/19 04:44:03;;;;;;;;;;;24.90;83.50;;;;;;5138898;27;19967;-69
2021/06/19 04:46:27;;;;;;;;;;;24.90;83.00;;;;;;5136653;27;19934;-67
2021/06/19 04:48:54;;;;;;;;;;;25.00;83.10;;;;;;5130925;27;20301;-68
2021/06/19 04:51:20;;;;;;;;;;;25.10;81.90;;;;;;5137502;27;19959;-69
2021/06/19 04:53:47;;;;;;;;;;;25.20;81.10;;;;;;5115061;27;19975;-69
2021/06/19 04:56:14;;;;;;;;;;;25.20;80.90;;;;;;5118758;27;20002;-68
2021/06/19 04:58:40;;;;;;;;;;;25.40;80.40;;;;;;5136132;27;20026;-68
2021/06/19 05:01:07;;;;;;;;;;;25.60;78.70;;;;;;5136718;27;19977;-68
2021/06/19 05:03:34;;;;;;;;;;;25.50;79.40;;;;;;5136264;27;20027;-68
2021/06/19 05:06:01;;;;;;;;;;;25.60;78.40;;;;;;5135008;27;20025;-69
2021/06/19 05:08:28;;;;;;;;;;;25.70;78.40;;;;;;5135886;27;19918;-68
2021/06/19 05:10:57;;;;;;;;;;;26.20;76.30;;;;;;5136554;27;19966;-69
2021/06/19 05:13:25;;;;;;;;;;;26.10;75.40;;;;;;5136315;27;20492;-69
2021/06/19 05:15:51;;;;;;;;;;;26.30;74.60;;;;;;5136838;27;20552;-74
2021/06/19 05:18:18;;;;;;;;;;;26.70;73.50;;;;;;5136005;27;20366;-73
2021/06/19 05:20:45;;;;;;;;;;;27.20;71.50;;;;;;5137403;27;20050;-73
2021/06/19 05:23:11;;;;;;;;;;;27.50;69.80;;;;;;5136642;27;19927;-73
2021/06/19 05:25:38;;;;;;;;;;;27.80;68.40;;;;;;5134510;27;20030;-73
2021/06/19 05:28:05;;;;;;;;;;;28.00;67.50;;;;;;5135892;27;20010;-74
2021/06/19 05:30:32;;;;;;;;;;;28.70;64.80;;;;;;5138269;27;20026;-74
2021/06/19 05:32:59;;;;;;;;;;;28.90;63.70;;;;;;5139586;27;20017;-74
2021/06/19 05:35:25;;;;;;;;;;;29.30;62.60;;;;;;5139917;27;19923;-74
2021/06/19 05:37:52;;;;;;;;;;;29.40;61.40;;;;;;5137509;27;21135;-74
2021/06/19 05:40:19;;;;;;;;;;;29.50;60.40;;;;;;5138107;27;19923;-75
2021/06/19 05:42:46;;;;;;;;;;;29.70;59.90;;;;;;5142719;27;20393;-74
2021/06/19 05:45:13;;;;;;;;;;;30.10;59.00;;;;;;5139429;27;20021;-75
2021/06/19 05:47:40;;;;;;;;;;;29.60;59.30;;;;;;5121041;27;20053;-75
2021/06/19 05:50:07;;;;;;;;;;;27.80;63.30;;;;;;5139199;27;19971;-75
2021/06/19 05:52:33;;;;;;;;;;;27.40;65.50;;;;;;5138809;27;20280;-75
2021/06/19 05:55:00;;;;;;;;;;;26.90;67.40;;;;;;5138255;27;19962;-74
2021/06/19 05:57:27;;;;;;;;;;;26.80;68.20;;;;;;5140321;27;20003;-75
2021/06/19 05:59:54;;;;;;;;;;;26.60;69.60;;;;;;5140526;27;19992;-74
2021/06/19 06:02:21;;;;;;;;;;;26.40;70.40;;;;;;5140823;27;19969;-74
2021/06/19 06:04:48;;;;;;;;;;;26.40;69.80;;;;;;5140347;27;19954;-75
2021/06/19 06:07:14;;;;;;;;;;;26.40;69.40;;;;;;5136477;27;19934;-74
2021/06/19 06:09:41;;;;;;;;;;;26.40;70.10;;;;;;5139149;27;19981;-74
2021/06/19 06:12:08;;;;;;;;;;;26.60;69.30;;;;;;5140076;27;19953;-74
2021/06/19 06:14:36;;;;;;;;;;;26.60;68.60;;;;;;5138374;27;19958;-75
2021/06/19 06:17:03;;;;;;;;;;;26.60;68.70;;;;;;5140394;27;19966;-74
2021/06/19 06:19:30;;;;;;;;;;;26.60;68.00;;;;;;5139789;27;19965;-73
2021/06/19 06:21:56;;;;;;;;;;;26.60;68.30;;;;;;5138750;27;20612;-74
2021/06/19 06:24:23;;;;;;;;;;;26.70;67.80;;;;;;5139460;27;19957;-75
2021/06/19 06:26:50;;;;;;;;;;;26.70;67.50;;;;;;5138693;27;19948;-76
2021/06/19 06:29:17;;;;;;;;;;;26.70;67.50;;;;;;5142032;27;20017;-75
2021/06/19 06:31:49;;;;;;;;;;;26.70;67.20;;;;;;5138169;27;19924;-74
2021/06/19 06:34:17;;;;;;;;;;;28.50;62.90;;;;;;5133926;27;19931;-72
2021/06/19 06:36:44;;;;;;;;;;;27.90;61.50;;;;;;5117627;27;19974;-74
2021/06/19 06:39:10;;;;;;;;;;;27.80;63.00;;;;;;5138074;27;19931;-75
2021/06/19 06:41:37;;;;;;;;;;;28.30;62.60;;;;;;5138809;27;19991;-75
2021/06/19 06:44:04;;;;;;;;;;;28.90;59.20;;;;;;5120993;27;20523;-74
2021/06/19 06:46:31;;;;;;;;;;;28.80;59.40;;;;;;5139704;27;20034;-74
2021/06/19 06:48:58;;;;;;;;;;;28.60;59.70;;;;;;5139318;27;19998;-74
2021/06/19 06:51:24;;;;;;;;;;;30.30;57.80;;;;;;5137985;27;19963;-74
2021/06/19 06:53:51;;;;;;;;;;;31.70;54.20;;;;;;5140594;27;20347;-74
2021/06/19 06:56:18;;;;;;;;;;;29.50;56.10;;;;;;5120533;27;20409;-75
2021/06/19 06:58:45;;;;;;;;;;;28.10;59.60;;;;;;5117706;27;19975;-75
2021/06/19 07:01:11;;;;;;;;;;;27.60;61.60;;;;;;5133119;27;19928;-74
2021/06/19 07:03:38;;;;;;;;;;;27.40;62.40;;;;;;5139343;27;19954;-76
2021/06/19 07:06:05;;;;;;;;;;;27.50;62.70;;;;;;5139497;27;19973;-75
2021/06/19 07:08:32;;;;;;;;;;;27.50;62.70;;;;;;5119654;27;19950;-76
2021/06/19 07:10:59;;;;;;;;;;;27.50;62.90;;;;;;5136290;27;20024;-75
2021/06/19 07:13:25;;;;;;;;;;;27.30;63.10;;;;;;5136685;27;20035;-75
2021/06/19 07:15:52;;;;;;;;;;;27.40;63.30;;;;;;5136707;27;20006;-74
2021/06/19 07:18:19;;;;;;;;;;;27.60;62.90;;;;;;5137584;27;20014;-69
2021/06/19 07:20:46;;;;;;;;;;;28.70;61.10;;;;;;5139316;27;20011;-71
2021/06/19 07:23:12;;;;;;;;;;;30.00;56.70;;;;;;5138425;27;20048;-70
2021/06/19 07:25:39;;;;;;;;;;;29.70;56.20;;;;;;5137140;27;20014;-71
2021/06/19 07:28:06;;;;;;;;;;;31.20;54.20;;;;;;5138179;27;20088;-71
2021/06/19 07:30:32;;;;;;;;;;;30.30;54.50;;;;;;5136858;27;19934;-70
2021/06/19 07:32:59;;;;;;;;;;;29.40;56.10;;;;;;5136063;27;19975;-70
2021/06/19 07:35:26;;;;;;;;;;;28.50;58.30;;;;;;5134958;27;20027;-70
2021/06/19 07:37:53;;;;;;;;;;;28.30;59.20;;;;;;5134556;27;19973;-71
2021/06/19 07:40:20;;;;;;;;;;;28.10;60.60;;;;;;5134128;27;20078;-71
2021/06/19 07:42:46;;;;;;;;;;;28.10;59.40;;;;;;5136625;27;19962;-69
2021/06/19 07:45:13;;;;;;;;;;;27.50;60.60;;;;;;5145883;27;19974;-69
2021/06/19 07:47:41;;;;;;;;;;;27.40;61.50;;;;;;5143422;27;19964;-67
2021/06/19 07:50:12;;;;;;;;;;;27.50;61.30;;;;;;5146978;27;19919;-67
2021/06/19 07:52:40;;;;;;;;;;;27.20;61.70;;;;;;5144246;27;19972;-68
2021/06/19 07:55:07;;;;;;;;;;;26.90;62.10;;;;;;5141796;27;20424;-65
2021/06/19 07:57:33;;;;;;;;;;;27.20;62.40;;;;;;5146009;27;20005;-66
2021/06/19 08:00:00;;;;;;;;;;;27.10;61.60;;;;;;5146497;27;19946;-66
2021/06/19 08:02:27;;;;;;;;;;;27.20;61.50;;;;;;5127646;27;19967;-67
2021/06/19 08:04:54;;;;;;;;;;;27.40;61.30;;;;;;5146356;27;20515;-66
2021/06/19 08:07:20;;;;;;;;;;;27.50;60.60;;;;;;5148921;27;19919;-68
2021/06/19 08:09:47;;;;;;;;;;;27.50;60.80;;;;;;5147229;27;19950;-67
2021/06/19 08:12:14;;;;;;;;;;;27.40;60.60;;;;;;5147380;27;19970;-67
2021/06/19 08:14:40;;;;;;;;;;;27.50;60.10;;;;;;5150489;27;19927;-67
2021/06/19 08:17:24;;;;;;;;;;;27.60;60.00;;;;;;5148470;27;19958;-67
2021/06/19 08:19:51;;;;;;;;;;;27.70;59.70;;;;;;5142466;27;19919;-68
2021/06/19 08:22:18;;;;;;;;;;;27.70;59.80;;;;;;5151439;27;20102;-68
2021/06/19 08:24:46;;;;;;;;;;;27.70;59.50;;;;;;5126191;27;19985;-68
2021/06/19 08:27:13;;;;;;;;;;;27.80;59.10;;;;;;5147089;27;19927;-69
2021/06/19 08:29:40;;;;;;;;;;;27.80;59.20;;;;;;5127828;27;20010;-68
2021/06/19 08:32:08;;;;;;;;;;;27.80;59.10;;;;;;5146296;27;20009;-68
2021/06/19 08:34:35;;;;;;;;;;;27.80;59.10;;;;;;5146054;27;19934;-69
2021/06/19 08:37:02;;;;;;;;;;;27.90;59.50;;;;;;5129156;27;19959;-69
2021/06/19 08:39:29;;;;;;;;;;;27.90;58.50;;;;;;5143696;27;19963;-68
2021/06/19 08:41:56;;;;;;;;;;;27.80;59.00;;;;;;5146997;27;19977;-68
2021/06/19 08:44:23;;;;;;;;;;;27.80;59.70;;;;;;5140965;27;19927;-67
2021/06/19 08:47:02;;;;;;;;;;;27.80;58.40;;;;;;5145699;27;20305;-66
2021/06/19 08:49:29;;;;;;;;;;;27.90;58.30;;;;;;5124675;27;20326;-67
2021/06/19 08:51:58;;;;;;;;;;;28.00;58.40;;;;;;5147972;27;20010;-67
2021/06/19 08:54:26;;;;;;;;;;;28.10;57.80;;;;;;5141585;27;20436;-65
2021/06/19 08:56:53;;;;;;;;;;;28.10;57.10;;;;;;5149352;27;20054;-68
2021/06/19 08:59:21;;;;;;;;;;;28.20;56.80;;;;;;5150220;27;19949;-64
2021/06/19 09:01:47;;;;;;;;;;;28.40;55.90;;;;;;5141891;27;20282;-64
2021/06/19 09:04:14;;;;;;;;;;;28.40;55.70;;;;;;5147920;27;20362;-65
2021/06/19 09:06:42;;;;;;;;;;;28.30;55.90;;;;;;5151774;27;20012;-65
2021/06/19 09:09:16;;;;;;;;;;;28.30;55.90;;;;;;5147821;27;20005;-65
2021/06/19 09:11:46;;;;;;;;;;;28.40;55.90;;;;;;5148842;27;19962;-65
2021/06/19 09:14:14;;;;;;;;;;;28.40;55.80;;;;;;5152529;27;20013;-65
2021/06/19 09:16:42;;;;;;;;;;;28.60;55.40;;;;;;5141540;27;19926;-64
2021/06/19 09:19:43;;;;;;;;;;;28.60;55.10;;;;;;5147394;27;20507;-67
2021/06/19 09:22:14;;;;;;;;;;;28.70;54.70;;;;;;5105853;27;19922;-65
2021/06/19 09:24:42;;;;;;;;;;;28.70;54.70;;;;;;5147009;27;20022;-64
2021/06/19 09:27:28;;;;;;;;;;;28.70;54.80;;;;;;5149805;27;19929;-66
2021/06/19 09:30:08;;;;;;;;;;;28.80;54.80;;;;;;5150548;27;20000;-68
2021/06/19 09:32:40;;;;;;;;;;;28.80;55.10;;;;;;5149158;27;20010;-65
2021/06/19 09:35:14;;;;;;;;;;;28.90;54.60;;;;;;5145880;27;19952;-66
2021/06/19 09:37:42;;;;;;;;;;;28.90;54.40;;;;;;5149200;27;19966;-70
2021/06/19 09:40:18;;;;;;;;;;;29.00;54.20;;;;;;5148642;27;20072;-71
2021/06/19 09:42:47;;;;;;;;;;;29.10;53.60;;;;;;5137256;27;20030;-70
2021/06/19 09:45:17;;;;;;;;;;;29.10;53.60;;;;;;5136958;27;20364;-74
2021/06/19 09:47:44;;;;;;;;;;;29.00;53.80;;;;;;5149284;27;19996;-74
2021/06/19 09:50:11;;;;;;;;;;;29.00;54.10;;;;;;5148358;27;20434;-73
2021/06/19 09:52:38;;;;;;;;;;;29.00;53.80;;;;;;5146841;27;20002;-71
2021/06/19 09:55:10;;;;;;;;;;;29.20;53.30;;;;;;5153095;27;20354;-73
2021/06/19 09:57:39;;;;;;;;;;;29.20;52.80;;;;;;5149501;27;19958;-73
2021/06/19 10:00:06;;;;;;;;;;;29.20;52.60;;;;;;5148963;27;20011;-73
2021/06/19 10:02:33;;;;;;;;;;;29.20;52.90;;;;;;5134343;27;20003;-74
2021/06/19 10:05:00;;;;;;;;;;;29.20;53.10;;;;;;5149323;27;19923;-73
2021/06/19 10:07:28;;;;;;;;;;;29.10;52.50;;;;;;5153403;27;19954;-75
2021/06/19 10:09:58;;;;;;;;;;;29.20;52.60;;;;;;5122356;27;19923;-73
2021/06/19 10:12:26;;;;;;;;;;;29.20;52.40;;;;;;5150323;27;19971;-73
2021/06/19 10:14:54;;;;;;;;;;;29.20;52.80;;;;;;5148681;27;19918;-73
2021/06/19 10:17:27;;;;;;;;;;;29.20;52.80;;;;;;5149792;27;19957;-72
2021/06/19 10:19:55;;;;;;;;;;;29.20;52.40;;;;;;5149226;27;20408;-74
2021/06/19 10:22:25;;;;;;;;;;;29.20;52.40;;;;;;5134870;27;19970;-73
2021/06/19 10:24:52;;;;;;;;;;;29.40;52.30;;;;;;5152336;27;20007;-73
2021/06/19 10:27:19;;;;;;;;;;;29.60;51.80;;;;;;5150640;27;19927;-73
2021/06/19 10:29:46;;;;;;;;;;;29.80;50.90;;;;;;5153930;27;20329;-73
2021/06/19 10:32:33;;;;;;;;;;;29.80;50.50;;;;;;5151370;27;19927;-73
2021/06/19 10:35:00;;;;;;;;;;;29.70;50.50;;;;;;5148998;27;20403;-72
2021/06/19 10:37:29;;;;;;;;;;;29.70;50.80;;;;;;5152730;27;20389;-72
2021/06/19 10:39:56;;;;;;;;;;;29.70;51.40;;;;;;5151402;27;20010;-73
2021/06/19 10:42:27;;;;;;;;;;;29.70;50.80;;;;;;5149280;27;19940;-72
2021/06/19 10:44:53;;;;;;;;;;;29.80;50.90;;;;;;5152566;27;19919;-71
2021/06/19 10:47:24;;;;;;;;;;;29.80;51.10;;;;;;5150072;27;19961;-72
2021/06/19 10:49:51;;;;;;;;;;;29.90;50.30;;;;;;5150492;27;20018;-73
2021/06/19 10:52:21;;;;;;;;;;;29.90;50.50;;;;;;5153571;27;19958;-74
2021/06/19 10:55:26;;;;;;;;;;;30.00;50.00;;;;;;5148080;27;19975;-73
2021/06/19 10:57:55;;;;;;;;;;;30.00;50.30;;;;;;5086451;28;20095;-73
2021/06/19 11:00:32;;;;;;;;;;;30.10;49.90;;;;;;5086383;28;20002;-71
2021/06/19 11:03:03;;;;;;;;;;;30.20;49.70;;;;;;5114632;27;19929;-73
2021/06/19 11:05:45;;;;;;;;;;;30.30;50.00;;;;;;5150311;27;19958;-73
2021/06/19 11:08:12;;;;;;;;;;;30.40;49.30;;;;;;5150234;27;19967;-72
2021/06/19 11:10:48;;;;;;;;;;;30.40;49.50;;;;;;5154068;27;20005;-73
2021/06/19 11:13:27;;;;;;;;;;;30.60;49.20;;;;;;5149915;27;19962;-73
2021/06/19 11:16:03;;;;;;;;;;;30.80;48.10;;;;;;5150136;27;19927;-74
2021/06/19 11:18:45;;;;;;;;;;;30.60;48.40;;;;;;5151650;27;19998;-73
2021/06/19 11:21:13;;;;;;;;;;;30.60;47.80;;;;;;5150234;27;20415;-74
2021/06/19 11:23:58;;;;;;;;;;;30.60;47.90;;;;;;5147947;27;20250;-73
2021/06/19 11:26:43;;;;;;;;;;;30.80;47.70;;;;;;5147623;27;19959;-72
2021/06/19 11:29:29;;;;;;;;;;;30.60;47.80;;;;;;5151630;27;19962;-73
2021/06/19 11:31:55;;;;;;;;;;;30.60;47.60;;;;;;5147695;27;19962;-73
2021/06/19 11:34:41;;;;;;;;;;;30.80;47.20;;;;;;5149931;27;19958;-72
2021/06/19 11:37:07;;;;;;;;;;;30.90;47.30;;;;;;5148283;27;19968;-73
2021/06/19 11:39:34;;;;;;;;;;;30.90;47.70;;;;;;5148993;27;19951;-73
2021/06/19 11:42:01;;;;;;;;;;;31.00;47.70;;;;;;5148282;27;19967;-72
2021/06/19 11:44:32;;;;;;;;;;;30.80;47.90;;;;;;5152634;27;20001;-72
2021/06/19 11:47:00;;;;;;;;;;;30.80;47.60;;;;;;5147907;27;20606;-72
2021/06/19 11:49:31;;;;;;;;;;;30.90;47.60;;;;;;5148945;27;19954;-74
2021/06/19 11:51:58;;;;;;;;;;;31.20;47.20;;;;;;5152184;27;19923;-73
2021/06/19 11:54:26;;;;;;;;;;;31.20;46.30;;;;;;5130202;27;19970;-72
2021/06/19 11:56:56;;;;;;;;;;;31.30;45.70;;;;;;5149504;27;19964;-72
2021/06/19 11:59:23;;;;;;;;;;;31.40;45.60;;;;;;5150772;27;19919;-72
2021/06/19 12:01:50;;;;;;;;;;;31.60;45.80;;;;;;5148190;27;19962;-73
2021/06/19 12:04:18;;;;;;;;;;;31.60;45.50;;;;;;5148688;27;19958;-69
2021/06/19 12:06:45;;;;;;;;;;;31.60;45.20;;;;;;5151979;27;19919;-75
2021/06/19 12:09:19;;;;;;;;;;;31.40;44.90;;;;;;5147552;27;19958;-73
2021/06/19 12:11:47;;;;;;;;;;;31.30;45.50;;;;;;5137981;27;19919;-72
2021/06/19 12:14:19;;;;;;;;;;;31.40;45.20;;;;;;5149617;27;19965;-72
2021/06/19 12:16:49;;;;;;;;;;;31.30;45.80;;;;;;5147285;27;19979;-72
2021/06/19 12:19:17;;;;;;;;;;;31.60;44.90;;;;;;5142140;27;19926;-72
2021/06/19 12:21:43;;;;;;;;;;;32.20;44.20;;;;;;5151664;27;19970;-72
2021/06/19 12:24:21;;;;;;;;;;;33.30;42.50;;;;;;5146248;27;19954;-72
2021/06/19 12:26:59;;;;;;;;;;;34.70;41.20;;;;;;5148304;27;19929;-73
2021/06/19 12:29:30;;;;;;;;;;;38.10;36.70;;;;;;5150926;27;19925;-73
2021/06/19 12:31:58;;;;;;;;;;;37.80;36.30;;;;;;5146158;27;20317;-72
2021/06/19 12:34:26;;;;;;;;;;;39.70;34.00;;;;;;5139578;27;19963;-72
2021/06/19 12:36:53;;;;;;;;;;;39.80;33.50;;;;;;5151670;27;19918;-73
2021/06/19 12:39:21;;;;;;;;;;;40.70;32.90;;;;;;5146176;27;19919;-71
2021/06/19 12:41:47;;;;;;;;;;;40.60;31.80;;;;;;5148937;27;19919;-74
2021/06/19 12:44:14;;;;;;;;;;;39.00;32.40;;;;;;5150648;27;19942;-73
2021/06/19 12:46:41;;;;;;;;;;;39.20;33.40;;;;;;5146074;27;20018;-72
2021/06/19 12:49:08;;;;;;;;;;;40.00;33.30;;;;;;5148399;27;20025;-73
2021/06/19 12:51:36;;;;;;;;;;;40.00;33.30;;;;;;5151464;27;19919;-73
2021/06/19 12:54:19;;;;;;;;;;;40.20;33.30;;;;;;5146334;27;20037;-73
2021/06/19 12:56:54;;;;;;;;;;;38.80;33.90;;;;;;5150017;27;20223;-73
2021/06/19 12:59:22;;;;;;;;;;;36.90;36.50;;;;;;5150942;27;20322;-73
2021/06/19 13:02:05;;;;;;;;;;;37.50;35.20;;;;;;5148040;27;19958;-73
2021/06/19 13:04:32;;;;;;;;;;;37.80;36.30;;;;;;5135809;27;19959;-73
2021/06/19 13:07:06;;;;;;;;;;;36.20;37.60;;;;;;5132214;27;19967;-73
2021/06/19 13:09:52;;;;;;;;;;;35.80;38.30;;;;;;5145282;27;19954;-73
2021/06/19 13:12:20;;;;;;;;;;;35.40;39.00;;;;;;5139259;27;19927;-73
2021/06/19 13:15:03;;;;;;;;;;;35.60;38.20;;;;;;5150851;27;20304;-73
2021/06/19 13:17:40;;;;;;;;;;;35.00;38.50;;;;;;5147073;27;20426;-71
2021/06/19 13:20:22;;;;;;;;;;;35.10;39.20;;;;;;5142073;27;20365;-72
2021/06/19 13:23:05;;;;;;;;;;;35.70;38.50;;;;;;5146200;27;19950;-73
2021/06/19 13:25:50;;;;;;;;;;;36.00;38.00;;;;;;5148647;27;19981;-72
2021/06/19 13:28:18;;;;;;;;;;;35.70;38.60;;;;;;5148357;27;19923;-73
2021/06/19 13:30:44;;;;;;;;;;;35.60;39.20;;;;;;5147550;27;20419;-74
2021/06/19 13:33:11;;;;;;;;;;;35.20;39.50;;;;;;5143641;27;19950;-73
2021/06/19 13:35:45;;;;;;;;;;;34.20;39.90;;;;;;5148276;27;19971;-73
2021/06/19 13:38:12;;;;;;;;;;;33.70;40.60;;;;;;5147452;27;19947;-73
2021/06/19 13:40:39;;;;;;;;;;;33.60;41.00;;;;;;5149355;27;20348;-73
2021/06/19 13:43:05;;;;;;;;;;;33.70;40.40;;;;;;5146838;27;20391;-72
2021/06/19 13:45:32;;;;;;;;;;;33.70;40.10;;;;;;5150143;27;20020;-72
2021/06/19 13:47:59;;;;;;;;;;;33.60;39.50;;;;;;5147960;27;20345;-72
2021/06/19 13:50:26;;;;;;;;;;;33.60;39.80;;;;;;5147994;27;19958;-72
2021/06/19 13:52:52;;;;;;;;;;;33.10;40.10;;;;;;5153566;27;19970;-73
2021/06/19 13:55:19;;;;;;;;;;;32.90;41.10;;;;;;5152416;27;19997;-73
2021/06/19 13:57:46;;;;;;;;;;;33.00;41.40;;;;;;5150503;27;20067;-73
2021/06/19 14:00:12;;;;;;;;;;;32.80;42.00;;;;;;5154410;27;19958;-73
2021/06/19 14:02:40;;;;;;;;;;;33.20;42.20;;;;;;5148281;27;19919;-72
2021/06/19 14:05:07;;;;;;;;;;;33.40;42.10;;;;;;5152309;27;20014;-72
2021/06/19 14:07:34;;;;;;;;;;;33.20;41.90;;;;;;5148386;27;19958;-72
2021/06/19 14:10:01;;;;;;;;;;;33.00;42.00;;;;;;5148432;27;20346;-72
2021/06/19 14:12:28;;;;;;;;;;;33.10;42.50;;;;;;5151553;27;19927;-72
2021/06/19 14:14:55;;;;;;;;;;;33.20;42.40;;;;;;5147608;27;19927;-73
2021/06/19 14:17:21;;;;;;;;;;;32.70;42.10;;;;;;5147669;27;19969;-72
2021/06/19 14:19:48;;;;;;;;;;;32.70;42.70;;;;;;5151183;27;19925;-65
2021/06/19 14:22:15;;;;;;;;;;;33.00;41.70;;;;;;5153366;27;19923;-65
2021/06/19 14:24:42;;;;;;;;;;;33.30;41.90;;;;;;5132055;27;20029;-66